sensor_id;sensor_type;location;lat;lon;timestamp;pressure;altitude;pressure_sealevel;temperature;humidity
8253;BME280;61313;48.396;10.008;2023-02-27T00:01:28;96406.25;;;-2.03;65.20
8253;BME280;61313;48.396;10.008;2023-02-27T00:03:55;96407.19;;;-1.90;64.75
8253;BME280;61313;48.396;10.008;2023-02-27T00:06:21;96400.38;;;-1.79;63.73
8253;BME280;61313;48.396;10.008;2023-02-27T00:08:46;96401.25;;;-1.79;63.66
8253;BME280;61313;48.396;10.008;2023-02-27T00:11:12;96402.09;;;-1.78;63.91
8253;BME280;61313;48.396;10.008;2023-02-27T00:13:37;96414.03;;;-1.93;63.87
8253;BME280;61313;48.396;10.008;2023-02-27T00:16:03;96400.19;;;-2.16;65.50
8253;BME280;61313;48.396;10.008;2023-02-27T00:18:29;96407.09;;;-2.06;65.14
8253;BME280;61313;48.396;10.008;2023-02-27T00:20:54;96406.19;;;-2.19;66.03
8253;BME280;61313;48.396;10.008;2023-02-27T00:23:19;96406.34;;;-1.91;64.09
8253;BME280;61313;48.396;10.008;2023-02-27T00:25:45;96401.19;;;-1.93;64.37
8253;BME280;61313;48.396;10.008;2023-02-27T00:28:10;96401.19;;;-1.85;64.56
8253;BME280;61313;48.396;10.008;2023-02-27T00:30:36;96407.19;;;-1.94;63.95
8253;BME280;61313;48.396;10.008;2023-02-27T00:33:02;96405.41;;;-1.99;65.36
8253;BME280;61313;48.396;10.008;2023-02-27T00:35:28;96405.38;;;-2.10;65.00
8253;BME280;61313;48.396;10.008;2023-02-27T00:37:53;96409.66;;;-2.12;64.44
8253;BME280;61313;48.396;10.008;2023-02-27T00:40:19;96401.91;;;-2.15;64.62
8253;BME280;61313;48.396;10.008;2023-02-27T00:42:44;96399.41;;;-2.07;64.73
8253;BME280;61313;48.396;10.008;2023-02-27T00:45:11;96405.38;;;-2.10;64.27
8253;BME280;61313;48.396;10.008;2023-02-27T00:47:36;96403.69;;;-2.03;63.97
8253;BME280;61313;48.396;10.008;2023-02-27T00:50:03;96411.19;;;-2.39;64.30
8253;BME280;61313;48.396;10.008;2023-02-27T00:52:28;96414.56;;;-2.44;65.02
8253;BME280;61313;48.396;10.008;2023-02-27T00:54:54;96424.13;;;-2.26;65.13
8253;BME280;61313;48.396;10.008;2023-02-27T00:57:19;96421.50;;;-2.34;65.20
8253;BME280;61313;48.396;10.008;2023-02-27T00:59:45;96423.13;;;-2.50;66.02
8253;BME280;61313;48.396;10.008;2023-02-27T01:02:10;96426.59;;;-2.40;65.58
8253;BME280;61313;48.396;10.008;2023-02-27T01:04:36;96425.72;;;-2.42;64.87
8253;BME280;61313;48.396;10.008;2023-02-27T01:07:02;96423.94;;;-2.51;65.25
8253;BME280;61313;48.396;10.008;2023-02-27T01:09:27;96427.25;;;-2.67;65.84
8253;BME280;61313;48.396;10.008;2023-02-27T01:11:53;96421.34;;;-2.56;66.19
8253;BME280;61313;48.396;10.008;2023-02-27T01:14:18;96423.09;;;-2.54;66.59
8253;BME280;61313;48.396;10.008;2023-02-27T01:16:44;96422.13;;;-2.66;66.05
8253;BME280;61313;48.396;10.008;2023-02-27T01:19:10;96420.50;;;-2.56;66.21
8253;BME280;61313;48.396;10.008;2023-02-27T01:21:35;96414.50;;;-2.53;66.17
8253;BME280;61313;48.396;10.008;2023-02-27T01:24:01;96427.25;;;-2.69;66.65
8253;BME280;61313;48.396;10.008;2023-02-27T01:26:26;96421.31;;;-2.60;66.44
8253;BME280;61313;48.396;10.008;2023-02-27T01:28:52;96421.25;;;-2.71;67.13
8253;BME280;61313;48.396;10.008;2023-02-27T01:31:18;96418.00;;;-2.44;65.63
8253;BME280;61313;48.396;10.008;2023-02-27T01:33:43;96424.75;;;-2.58;67.13
8253;BME280;61313;48.396;10.008;2023-02-27T01:36:09;96417.78;;;-2.74;66.73
8253;BME280;61313;48.396;10.008;2023-02-27T01:38:34;96429.09;;;-2.52;65.85
8253;BME280;61313;48.396;10.008;2023-02-27T01:41:00;96425.72;;;-2.45;65.84
8253;BME280;61313;48.396;10.008;2023-02-27T01:43:26;96427.47;;;-2.40;66.22
8253;BME280;61313;48.396;10.008;2023-02-27T01:45:52;96417.97;;;-2.51;65.92
8253;BME280;61313;48.396;10.008;2023-02-27T01:50:56;96426.38;;;-2.68;66.96
8253;BME280;61313;48.396;10.008;2023-02-27T01:53:25;96422.13;;;-2.66;68.25
8253;BME280;61313;48.396;10.008;2023-02-27T01:55:58;96425.63;;;-2.53;66.70
8253;BME280;61313;48.396;10.008;2023-02-27T01:58:25;96422.09;;;-2.70;67.80
8253;BME280;61313;48.396;10.008;2023-02-27T02:00:51;96416.25;;;-2.52;66.88
8253;BME280;61313;48.396;10.008;2023-02-27T02:03:25;96419.53;;;-2.67;67.21
8253;BME280;61313;48.396;10.008;2023-02-27T02:05:54;96427.38;;;-2.49;67.45
8253;BME280;61313;48.396;10.008;2023-02-27T02:08:22;96420.47;;;-2.59;67.43
8253;BME280;61313;48.396;10.008;2023-02-27T02:10:50;96425.63;;;-2.59;67.94
8253;BME280;61313;48.396;10.008;2023-02-27T02:13:18;96420.34;;;-2.74;68.72
8253;BME280;61313;48.396;10.008;2023-02-27T02:15:49;96421.91;;;-2.92;68.83
8253;BME280;61313;48.396;10.008;2023-02-27T02:22:06;96415.16;;;-2.79;68.97
8253;BME280;61313;48.396;10.008;2023-02-27T02:46:08;96421.03;;;-2.94;70.68
8253;BME280;61313;48.396;10.008;2023-02-27T02:51:23;96403.97;;;-2.87;69.24
8253;BME280;61313;48.396;10.008;2023-02-27T02:54:04;96415.09;;;-2.87;70.73
8253;BME280;61313;48.396;10.008;2023-02-27T02:59:08;96411.72;;;-2.83;69.21
8253;BME280;61313;48.396;10.008;2023-02-27T03:01:45;96412.50;;;-2.88;69.57
8253;BME280;61313;48.396;10.008;2023-02-27T03:06:59;96420.19;;;-2.93;70.45
8253;BME280;61313;48.396;10.008;2023-02-27T03:09:42;96422.91;;;-2.78;69.37
8253;BME280;61313;48.396;10.008;2023-02-27T03:12:12;96415.16;;;-2.81;70.21
8253;BME280;61313;48.396;10.008;2023-02-27T03:17:46;96413.44;;;-2.82;70.60
8253;BME280;61313;48.396;10.008;2023-02-27T03:20:27;96413.50;;;-2.75;70.25
8253;BME280;61313;48.396;10.008;2023-02-27T03:22:58;96414.50;;;-2.60;69.30
8253;BME280;61313;48.396;10.008;2023-02-27T03:25:26;96410.94;;;-2.75;69.55
8253;BME280;61313;48.396;10.008;2023-02-27T03:27:56;96416.84;;;-2.81;70.53
8253;BME280;61313;48.396;10.008;2023-02-27T03:31:00;96415.19;;;-2.74;70.54
8253;BME280;61313;48.396;10.008;2023-02-27T03:33:47;96413.53;;;-2.68;70.19
8253;BME280;61313;48.396;10.008;2023-02-27T03:39:34;96421.13;;;-2.85;70.43
8253;BME280;61313;48.396;10.008;2023-02-27T03:48:14;96417.59;;;-2.93;69.94
8253;BME280;61313;48.396;10.008;2023-02-27T03:50:39;96419.31;;;-2.95;70.35
8253;BME280;61313;48.396;10.008;2023-02-27T03:53:10;96420.13;;;-3.02;70.70
8253;BME280;61313;48.396;10.008;2023-02-27T03:55:40;96411.72;;;-2.81;70.61
8253;BME280;61313;48.396;10.008;2023-02-27T03:58:06;96418.47;;;-2.94;70.95
8253;BME280;61313;48.396;10.008;2023-02-27T04:00:32;96413.41;;;-2.88;70.74
8253;BME280;61313;48.396;10.008;2023-02-27T04:02:59;96422.69;;;-3.02;71.04
8253;BME280;61313;48.396;10.008;2023-02-27T04:05:26;96421.91;;;-2.92;70.67
8253;BME280;61313;48.396;10.008;2023-02-27T04:13:46;96423.72;;;-2.83;69.74
8253;BME280;61313;48.396;10.008;2023-02-27T04:24:53;96448.50;;;-2.85;70.76
8253;BME280;61313;48.396;10.008;2023-02-27T04:27:41;96441.59;;;-2.91;71.39
8253;BME280;61313;48.396;10.008;2023-02-27T04:30:54;96440.75;;;-2.88;71.69
8253;BME280;61313;48.396;10.008;2023-02-27T04:33:30;96441.53;;;-2.99;71.92
8253;BME280;61313;48.396;10.008;2023-02-27T04:38:39;96440.56;;;-3.11;71.67
8253;BME280;61313;48.396;10.008;2023-02-27T04:41:28;96441.66;;;-2.85;71.94
8253;BME280;61313;48.396;10.008;2023-02-27T04:43:55;96443.44;;;-2.78;70.65
8253;BME280;61313;48.396;10.008;2023-02-27T04:46:24;96448.41;;;-2.96;71.48
8253;BME280;61313;48.396;10.008;2023-02-27T04:51:43;96446.00;;;-2.78;71.11
8253;BME280;61313;48.396;10.008;2023-02-27T04:54:14;96448.63;;;-2.71;70.19
8253;BME280;61313;48.396;10.008;2023-02-27T04:56:48;96434.03;;;-2.75;71.04
8253;BME280;61313;48.396;10.008;2023-02-27T04:59:21;96438.16;;;-2.91;70.27
8253;BME280;61313;48.396;10.008;2023-02-27T05:02:16;96450.94;;;-3.02;71.83
8253;BME280;61313;48.396;10.008;2023-02-27T05:04:49;96438.88;;;-3.08;70.44
8253;BME280;61313;48.396;10.008;2023-02-27T05:07:17;96448.34;;;-3.02;70.53
8253;BME280;61313;48.396;10.008;2023-02-27T05:10:01;96450.72;;;-3.21;70.86
8253;BME280;61313;48.396;10.008;2023-02-27T05:12:40;96452.63;;;-3.04;70.33
8253;BME280;61313;48.396;10.008;2023-02-27T05:15:32;96451.72;;;-3.06;70.04
8253;BME280;61313;48.396;10.008;2023-02-27T05:18:02;96459.47;;;-3.03;70.46
8253;BME280;61313;48.396;10.008;2023-02-27T05:23:30;96452.66;;;-3.00;70.32
8253;BME280;61313;48.396;10.008;2023-02-27T05:26:10;96465.25;;;-3.23;71.52
8253;BME280;61313;48.396;10.008;2023-02-27T05:28:57;96464.41;;;-3.22;70.98
8253;BME280;61313;48.396;10.008;2023-02-27T05:31:31;96454.31;;;-3.03;70.11
8253;BME280;61313;48.396;10.008;2023-02-27T05:34:04;96458.47;;;-3.16;71.42
8253;BME280;61313;48.396;10.008;2023-02-27T05:36:35;96463.81;;;-2.97;69.12
8253;BME280;61313;48.396;10.008;2023-02-27T05:39:06;96463.75;;;-3.04;69.61
8253;BME280;61313;48.396;10.008;2023-02-27T05:41:40;96459.41;;;-3.09;69.31
8253;BME280;61313;48.396;10.008;2023-02-27T05:44:20;96461.78;;;-3.26;70.10
8253;BME280;61313;48.396;10.008;2023-02-27T05:47:08;96456.69;;;-3.23;71.27
8253;BME280;61313;48.396;10.008;2023-02-27T05:52:16;96464.91;;;-3.53;71.12
8253;BME280;61313;48.396;10.008;2023-02-27T05:55:02;96463.38;;;-3.37;71.10
8253;BME280;61313;48.396;10.008;2023-02-27T05:57:50;96478.03;;;-3.27;70.90
8253;BME280;61313;48.396;10.008;2023-02-27T06:00:34;96479.22;;;-2.97;72.25
8253;BME280;61313;48.396;10.008;2023-02-27T06:03:03;96462.09;;;-2.97;69.86
8253;BME280;61313;48.396;10.008;2023-02-27T06:05:28;96464.44;;;-3.18;70.80
8253;BME280;61313;48.396;10.008;2023-02-27T06:07:54;96474.13;;;-2.91;69.15
8253;BME280;61313;48.396;10.008;2023-02-27T06:10:20;96474.63;;;-3.25;70.81
8253;BME280;61313;48.396;10.008;2023-02-27T06:12:46;96468.72;;;-3.17;69.99
8253;BME280;61313;48.396;10.008;2023-02-27T06:15:12;96461.91;;;-3.15;70.54
8253;BME280;61313;48.396;10.008;2023-02-27T06:17:38;96465.13;;;-3.35;70.12
8253;BME280;61313;48.396;10.008;2023-02-27T06:20:05;96470.38;;;-3.23;71.41
8253;BME280;61313;48.396;10.008;2023-02-27T06:22:32;96478.13;;;-3.18;71.25
8253;BME280;61313;48.396;10.008;2023-02-27T06:24:58;96466.91;;;-3.26;70.56
8253;BME280;61313;48.396;10.008;2023-02-27T06:27:23;96473.19;;;-2.98;69.77
8253;BME280;61313;48.396;10.008;2023-02-27T06:29:51;96478.44;;;-2.90;70.07
8253;BME280;61313;48.396;10.008;2023-02-27T06:32:17;96474.84;;;-3.06;69.82
8253;BME280;61313;48.396;10.008;2023-02-27T06:34:43;96480.06;;;-2.97;70.03
8253;BME280;61313;48.396;10.008;2023-02-27T06:37:08;96483.50;;;-2.96;69.13
8253;BME280;61313;48.396;10.008;2023-02-27T06:39:34;96482.78;;;-2.82;70.03
8253;BME280;61313;48.396;10.008;2023-02-27T06:42:00;96480.28;;;-2.74;68.61
8253;BME280;61313;48.396;10.008;2023-02-27T06:44:25;96483.84;;;-2.60;67.97
8253;BME280;61313;48.396;10.008;2023-02-27T06:46:51;96481.41;;;-2.41;68.62
8253;BME280;61313;48.396;10.008;2023-02-27T06:49:16;96479.78;;;-2.31;67.43
8253;BME280;61313;48.396;10.008;2023-02-27T06:51:43;96489.28;;;-2.18;66.45
8253;BME280;61313;48.396;10.008;2023-02-27T06:54:08;96488.44;;;-2.19;66.68
8253;BME280;61313;48.396;10.008;2023-02-27T06:56:34;96487.53;;;-2.22;66.59
8253;BME280;61313;48.396;10.008;2023-02-27T06:58:59;96488.34;;;-2.31;67.47
8253;BME280;61313;48.396;10.008;2023-02-27T07:01:25;96494.22;;;-2.46;66.57
8253;BME280;61313;48.396;10.008;2023-02-27T07:03:51;96490.03;;;-2.35;66.26
8253;BME280;61313;48.396;10.008;2023-02-27T07:06:16;96493.50;;;-2.29;67.39
8253;BME280;61313;48.396;10.008;2023-02-27T07:08:42;96493.69;;;-2.03;65.58
8253;BME280;61313;48.396;10.008;2023-02-27T07:11:07;96497.00;;;-2.21;66.20
8253;BME280;61313;48.396;10.008;2023-02-27T07:13:33;96500.53;;;-2.05;65.37
8253;BME280;61313;48.396;10.008;2023-02-27T07:15:58;96491.56;;;-1.10;62.65
8253;BME280;61313;48.396;10.008;2023-02-27T07:18:24;96500.22;;;-0.86;61.26
8253;BME280;61313;48.396;10.008;2023-02-27T07:20:50;96494.25;;;-0.62;60.16
8253;BME280;61313;48.396;10.008;2023-02-27T07:26:02;96499.31;;;0.42;57.12
8253;BME280;61313;48.396;10.008;2023-02-27T07:28:28;96507.16;;;0.09;57.55
8253;BME280;61313;48.396;10.008;2023-02-27T07:30:54;96506.31;;;-0.32;57.91
8253;BME280;61313;48.396;10.008;2023-02-27T07:33:20;96505.47;;;-0.09;58.57
8253;BME280;61313;48.396;10.008;2023-02-27T07:35:46;96510.63;;;-0.28;59.05
8253;BME280;61313;48.396;10.008;2023-02-27T07:38:12;96519.19;;;0.02;58.08
8253;BME280;61313;48.396;10.008;2023-02-27T07:40:37;96519.16;;;0.20;57.15
8253;BME280;61313;48.396;10.008;2023-02-27T07:43:03;96515.69;;;0.46;56.26
8253;BME280;61313;48.396;10.008;2023-02-27T07:45:28;96520.88;;;0.18;56.80
8253;BME280;61313;48.396;10.008;2023-02-27T07:47:54;96518.31;;;0.31;56.80
8253;BME280;61313;48.396;10.008;2023-02-27T07:50:19;96529.53;;;-0.43;58.37
8253;BME280;61313;48.396;10.008;2023-02-27T07:52:45;96531.22;;;-0.49;58.63
8253;BME280;61313;48.396;10.008;2023-02-27T07:55:12;96531.16;;;-0.69;59.70
8253;BME280;61313;48.396;10.008;2023-02-27T07:57:38;96535.53;;;-0.13;58.33
8253;BME280;61313;48.396;10.008;2023-02-27T08:00:04;96528.66;;;-0.03;57.57
8253;BME280;61313;48.396;10.008;2023-02-27T08:02:34;96535.53;;;0.13;57.47
8253;BME280;61313;48.396;10.008;2023-02-27T08:04:59;96531.19;;;0.46;56.18
8253;BME280;61313;48.396;10.008;2023-02-27T08:07:25;96526.00;;;0.40;56.37
8253;BME280;61313;48.396;10.008;2023-02-27T08:09:50;96528.47;;;0.91;55.09
8253;BME280;61313;48.396;10.008;2023-02-27T08:12:15;96523.16;;;1.17;54.10
8253;BME280;61313;48.396;10.008;2023-02-27T08:14:41;96530.16;;;0.96;53.75
8253;BME280;61313;48.396;10.008;2023-02-27T08:17:06;96530.69;;;1.57;52.41
8253;BME280;61313;48.396;10.008;2023-02-27T08:19:32;96526.75;;;0.88;55.23
8253;BME280;61313;48.396;10.008;2023-02-27T08:21:57;96523.31;;;0.86;53.70
8253;BME280;61313;48.396;10.008;2023-02-27T08:24:23;96532.81;;;0.81;54.54
8253;BME280;61313;48.396;10.008;2023-02-27T08:26:48;96530.25;;;0.67;55.66
8253;BME280;61313;48.396;10.008;2023-02-27T08:29:14;96546.59;;;0.66;55.79
8253;BME280;61313;48.396;10.008;2023-02-27T08:31:39;96541.56;;;0.03;57.74
8253;BME280;61313;48.396;10.008;2023-02-27T08:34:05;96534.63;;;0.34;56.50
8253;BME280;61313;48.396;10.008;2023-02-27T08:36:31;96532.06;;;0.30;56.39
8253;BME280;61313;48.396;10.008;2023-02-27T08:38:56;96540.50;;;0.92;55.55
8253;BME280;61313;48.396;10.008;2023-02-27T08:41:22;96545.72;;;0.79;55.47
8253;BME280;61313;48.396;10.008;2023-02-27T08:43:48;96538.69;;;1.14;55.17
8253;BME280;61313;48.396;10.008;2023-02-27T08:46:13;96542.31;;;0.65;54.95
8253;BME280;61313;48.396;10.008;2023-02-27T08:48:38;96543.91;;;0.98;55.61
8253;BME280;61313;48.396;10.008;2023-02-27T08:51:07;96538.38;;;1.67;53.02
8253;BME280;61313;48.396;10.008;2023-02-27T08:53:32;96552.34;;;1.42;53.50
8253;BME280;61313;48.396;10.008;2023-02-27T08:55:58;96556.69;;;1.27;52.95
8253;BME280;61313;48.396;10.008;2023-02-27T08:58:23;96542.88;;;1.36;52.44
8253;BME280;61313;48.396;10.008;2023-02-27T09:00:49;96538.31;;;1.78;51.99
8253;BME280;61313;48.396;10.008;2023-02-27T09:03:14;96561.94;;;1.17;52.68
8253;BME280;61313;48.396;10.008;2023-02-27T09:05:40;96548.28;;;0.89;52.78
8253;BME280;61313;48.396;10.008;2023-02-27T09:08:06;96540.44;;;1.10;53.72
8253;BME280;61313;48.396;10.008;2023-02-27T09:10:32;96549.75;;;1.39;51.37
8253;BME280;61313;48.396;10.008;2023-02-27T09:12:59;96557.44;;;1.54;51.31
8253;BME280;61313;48.396;10.008;2023-02-27T09:15:25;96558.25;;;1.65;49.89
8253;BME280;61313;48.396;10.008;2023-02-27T09:17:51;96552.88;;;1.92;49.68
8253;BME280;61313;48.396;10.008;2023-02-27T09:20:16;96542.59;;;1.81;49.71
8253;BME280;61313;48.396;10.008;2023-02-27T09:22:42;96545.34;;;2.60;47.72
8253;BME280;61313;48.396;10.008;2023-02-27T09:25:08;96542.00;;;2.50;47.38
8253;BME280;61313;48.396;10.008;2023-02-27T09:27:34;96537.44;;;1.76;48.23
8253;BME280;61313;48.396;10.008;2023-02-27T09:30:00;96564.53;;;1.17;49.42
8253;BME280;61313;48.396;10.008;2023-02-27T09:32:26;96545.56;;;1.19;49.39
8253;BME280;61313;48.396;10.008;2023-02-27T09:34:51;96567.94;;;1.23;49.59
8253;BME280;61313;48.396;10.008;2023-02-27T09:37:17;96578.16;;;1.50;49.87
8253;BME280;61313;48.396;10.008;2023-02-27T09:39:46;96559.28;;;1.29;50.40
8253;BME280;61313;48.396;10.008;2023-02-27T09:42:20;96554.25;;;1.04;50.47
8253;BME280;61313;48.396;10.008;2023-02-27T09:45:08;96561.09;;;1.12;50.05
8253;BME280;61313;48.396;10.008;2023-02-27T09:47:44;96569.63;;;1.29;49.79
8253;BME280;61313;48.396;10.008;2023-02-27T09:52:43;96559.38;;;1.08;50.21
8253;BME280;61313;48.396;10.008;2023-02-27T09:55:17;96577.38;;;1.31;50.28
8253;BME280;61313;48.396;10.008;2023-02-27T10:00:43;96584.31;;;1.18;50.61
8253;BME280;61313;48.396;10.008;2023-02-27T10:06:32;96586.88;;;1.29;50.08
8253;BME280;61313;48.396;10.008;2023-02-27T10:14:42;96593.81;;;1.13;49.89
8253;BME280;61313;48.396;10.008;2023-02-27T10:17:19;96593.06;;;0.83;51.25
8253;BME280;61313;48.396;10.008;2023-02-27T10:19:47;96606.06;;;0.28;51.48
8253;BME280;61313;48.396;10.008;2023-02-27T10:22:20;96600.03;;;0.13;52.24
8253;BME280;61313;48.396;10.008;2023-02-27T10:25:11;96606.03;;;0.09;52.66
8253;BME280;61313;48.396;10.008;2023-02-27T10:27:40;96603.47;;;-0.05;52.50
8253;BME280;61313;48.396;10.008;2023-02-27T10:30:19;96596.59;;;-0.09;53.10
8253;BME280;61313;48.396;10.008;2023-02-27T10:32:47;96600.03;;;0.15;51.68
8253;BME280;61313;48.396;10.008;2023-02-27T10:35:20;96623.25;;;0.04;51.99
8253;BME280;61313;48.396;10.008;2023-02-27T10:37:49;96604.34;;;0.17;51.99
8253;BME280;61313;48.396;10.008;2023-02-27T10:40:17;96606.03;;;0.40;51.56
8253;BME280;61313;48.396;10.008;2023-02-27T10:42:45;96612.03;;;0.59;51.54
8253;BME280;61313;48.396;10.008;2023-02-27T10:45:13;96615.47;;;0.79;51.22
8253;BME280;61313;48.396;10.008;2023-02-27T10:47:42;96616.38;;;0.57;51.31
8253;BME280;61313;48.396;10.008;2023-02-27T10:50:30;96625.78;;;0.86;51.55
8253;BME280;61313;48.396;10.008;2023-02-27T10:52:59;96625.78;;;0.75;51.39
8253;BME280;61313;48.396;10.008;2023-02-27T10:55:31;96618.09;;;0.23;52.14
8253;BME280;61313;48.396;10.008;2023-02-27T10:57:57;96624.13;;;0.17;51.74
8253;BME280;61313;48.396;10.008;2023-02-27T11:00:31;96614.66;;;-0.01;52.63
8253;BME280;61313;48.396;10.008;2023-02-27T11:02:59;96615.50;;;0.26;51.29
8253;BME280;61313;48.396;10.008;2023-02-27T11:05:30;96618.97;;;0.12;51.91
8253;BME280;61313;48.396;10.008;2023-02-27T11:08:10;96624.97;;;0.16;52.13
8253;BME280;61313;48.396;10.008;2023-02-27T11:10:36;96624.09;;;0.09;52.23
8253;BME280;61313;48.396;10.008;2023-02-27T11:13:10;96640.47;;;0.25;52.31
8253;BME280;61313;48.396;10.008;2023-02-27T11:15:42;96622.41;;;0.20;52.35
8253;BME280;61313;48.396;10.008;2023-02-27T11:18:26;96612.94;;;0.09;51.78
8253;BME280;61313;48.396;10.008;2023-02-27T11:20:53;96615.53;;;-0.07;53.17
8253;BME280;61313;48.396;10.008;2023-02-27T11:23:21;96616.38;;;0.12;52.80
8253;BME280;61313;48.396;10.008;2023-02-27T11:25:47;96618.97;;;-0.09;53.33
8253;BME280;61313;48.396;10.008;2023-02-27T11:28:29;96624.97;;;0.07;53.32
8253;BME280;61313;48.396;10.008;2023-02-27T11:31:06;96611.22;;;0.28;53.40
8253;BME280;61313;48.396;10.008;2023-02-27T11:33:47;96612.91;;;0.42;50.09
8253;BME280;61313;48.396;10.008;2023-02-27T11:36:13;96608.63;;;0.46;48.43
8253;BME280;61313;48.396;10.008;2023-02-27T11:38:39;96613.78;;;0.51;49.14
8253;BME280;61313;48.396;10.008;2023-02-27T11:41:06;96598.31;;;0.52;47.88
8253;BME280;61313;48.396;10.008;2023-02-27T11:43:46;96602.53;;;0.78;49.08
8253;BME280;61313;48.396;10.008;2023-02-27T11:46:18;96606.78;;;1.00;49.38
8253;BME280;61313;48.396;10.008;2023-02-27T11:49:26;96601.72;;;0.70;49.08
8253;BME280;61313;48.396;10.008;2023-02-27T11:52:17;96607.75;;;0.62;48.68
8253;BME280;61313;48.396;10.008;2023-02-27T11:54:53;96609.44;;;0.77;48.05
8253;BME280;61313;48.396;10.008;2023-02-27T11:57:32;96605.16;;;0.47;48.46
8253;BME280;61313;48.396;10.008;2023-02-27T12:03:10;96601.75;;;0.20;48.84
8253;BME280;61313;48.396;10.008;2023-02-27T12:05:45;96603.47;;;0.28;50.00
8253;BME280;61313;48.396;10.008;2023-02-27T12:11:03;96606.91;;;0.50;49.65
8253;BME280;61313;48.396;10.008;2023-02-27T12:13:35;96601.75;;;0.37;50.36
8253;BME280;61313;48.396;10.008;2023-02-27T12:16:22;96600.88;;;0.32;49.62
8253;BME280;61313;48.396;10.008;2023-02-27T12:19:11;96606.94;;;0.36;49.11
8253;BME280;61313;48.396;10.008;2023-02-27T12:21:43;96602.59;;;0.59;48.58
8253;BME280;61313;48.396;10.008;2023-02-27T12:24:21;96599.13;;;0.60;47.70
8253;BME280;61313;48.396;10.008;2023-02-27T12:26:51;96599.13;;;0.70;47.12
8253;BME280;61313;48.396;10.008;2023-02-27T12:29:37;96593.75;;;1.33;46.51
8253;BME280;61313;48.396;10.008;2023-02-27T12:32:22;96583.41;;;1.36;46.58
8253;BME280;61313;48.396;10.008;2023-02-27T12:37:37;96586.22;;;0.63;48.42
8253;BME280;61313;48.396;10.008;2023-02-27T12:40:03;96588.75;;;0.85;47.98
8253;BME280;61313;48.396;10.008;2023-02-27T12:54:09;96592.19;;;0.82;48.07
8253;BME280;61313;48.396;10.008;2023-02-27T13:04:23;96582.63;;;1.12;47.55
8253;BME280;61313;48.396;10.008;2023-02-27T13:07:04;96593.91;;;0.91;48.29
8253;BME280;61313;48.396;10.008;2023-02-27T13:12:08;96594.78;;;0.82;45.92
8253;BME280;61313;48.396;10.008;2023-02-27T13:14:46;96584.44;;;0.84;46.23
8253;BME280;61313;48.396;10.008;2023-02-27T13:17:25;96580.16;;;0.86;47.23
8253;BME280;61313;48.396;10.008;2023-02-27T13:23:09;96585.34;;;0.72;47.15
8253;BME280;61313;48.396;10.008;2023-02-27T13:25:39;96586.25;;;0.57;47.95
8253;BME280;61313;48.396;10.008;2023-02-27T13:28:12;96586.22;;;0.60;47.81
8253;BME280;61313;48.396;10.008;2023-02-27T13:30:47;96579.28;;;0.84;47.63
8253;BME280;61313;48.396;10.008;2023-02-27T13:36:48;96575.06;;;0.61;47.30
8253;BME280;61313;48.396;10.008;2023-02-27T13:44:58;96581.00;;;0.82;46.48
8253;BME280;61313;48.396;10.008;2023-02-27T13:52:51;96581.06;;;0.71;46.69
8253;BME280;61313;48.396;10.008;2023-02-27T13:55:28;96579.31;;;0.66;46.56
8253;BME280;61313;48.396;10.008;2023-02-27T13:57:57;96572.38;;;0.86;46.50
8253;BME280;61313;48.396;10.008;2023-02-27T14:00:25;96589.56;;;1.04;45.47
8253;BME280;61313;48.396;10.008;2023-02-27T14:02:57;96582.75;;;0.66;45.90
8253;BME280;61313;48.396;10.008;2023-02-27T14:05:35;96587.94;;;0.68;46.60
8253;BME280;61313;48.396;10.008;2023-02-27T14:08:08;96584.50;;;0.56;46.90
8253;BME280;61313;48.396;10.008;2023-02-27T14:10:35;96580.19;;;0.74;47.39
8253;BME280;61313;48.396;10.008;2023-02-27T14:13:01;96584.47;;;0.75;47.09
8253;BME280;61313;48.396;10.008;2023-02-27T14:18:03;96578.44;;;0.80;46.57
8253;BME280;61313;48.396;10.008;2023-02-27T14:25:54;96587.91;;;0.83;46.94
8253;BME280;61313;48.396;10.008;2023-02-27T14:28:55;96588.78;;;0.79;47.16
8253;BME280;61313;48.396;10.008;2023-02-27T14:31:26;96589.66;;;0.67;46.80
8253;BME280;61313;48.396;10.008;2023-02-27T14:33:54;96587.06;;;0.76;46.55
8253;BME280;61313;48.396;10.008;2023-02-27T14:36:33;96590.56;;;0.52;47.04
8253;BME280;61313;48.396;10.008;2023-02-27T14:39:00;96587.94;;;0.68;46.53
8253;BME280;61313;48.396;10.008;2023-02-27T14:44:45;96583.59;;;0.83;46.69
8253;BME280;61313;48.396;10.008;2023-02-27T14:47:21;96587.06;;;0.75;47.10
8253;BME280;61313;48.396;10.008;2023-02-27T14:49:48;96599.97;;;0.66;47.52
8253;BME280;61313;48.396;10.008;2023-02-27T14:52:18;96598.25;;;0.75;47.83
8253;BME280;61313;48.396;10.008;2023-02-27T14:54:44;96582.75;;;0.83;48.27
8253;BME280;61313;48.396;10.008;2023-02-27T14:57:20;96606.03;;;0.69;46.31
8253;BME280;61313;48.396;10.008;2023-02-27T14:59:49;96597.44;;;0.50;46.90
8253;BME280;61313;48.396;10.008;2023-02-27T15:04:47;96591.38;;;0.54;46.90
8253;BME280;61313;48.396;10.008;2023-02-27T15:07:19;96606.88;;;0.67;46.57
8253;BME280;61313;48.396;10.008;2023-02-27T15:09:49;96605.19;;;0.41;46.16
8253;BME280;61313;48.396;10.008;2023-02-27T15:12:20;96602.59;;;0.42;47.28
8253;BME280;61313;48.396;10.008;2023-02-27T15:14:50;96594.84;;;0.53;47.71
8253;BME280;61313;48.396;10.008;2023-02-27T15:17:34;96600.03;;;0.33;47.42
8253;BME280;61313;48.396;10.008;2023-02-27T15:20:01;96606.88;;;0.54;47.35
8253;BME280;61313;48.396;10.008;2023-02-27T15:22:28;96608.63;;;0.43;47.47
8253;BME280;61313;48.396;10.008;2023-02-27T15:24:58;96606.91;;;0.20;47.61
8253;BME280;61313;48.396;10.008;2023-02-27T15:27:25;96610.38;;;0.33;47.40
8253;BME280;61313;48.396;10.008;2023-02-27T15:30:01;96609.50;;;0.34;47.59
8253;BME280;61313;48.396;10.008;2023-02-27T15:32:37;96603.47;;;0.25;47.15
8253;BME280;61313;48.396;10.008;2023-02-27T15:35:25;96617.22;;;0.33;48.38
8253;BME280;61313;48.396;10.008;2023-02-27T15:37:55;96620.69;;;0.18;48.44
8253;BME280;61313;48.396;10.008;2023-02-27T15:40:28;96621.53;;;0.15;48.41
8253;BME280;61313;48.396;10.008;2023-02-27T15:42:55;96618.13;;;0.19;48.21
8253;BME280;61313;48.396;10.008;2023-02-27T15:45:26;96635.31;;;0.20;47.46
8253;BME280;61313;48.396;10.008;2023-02-27T15:47:53;96631.00;;;0.19;47.53
8253;BME280;61313;48.396;10.008;2023-02-27T15:50:30;96625.84;;;0.35;47.16
8253;BME280;61313;48.396;10.008;2023-02-27T15:55:33;96633.59;;;0.39;48.21
8253;BME280;61313;48.396;10.008;2023-02-27T15:58:00;96631.84;;;0.45;48.03